createdAt,value
2023-09-17T00:00:46.731Z,17.75
2023-09-17T00:01:46.793Z,17.72
2023-09-17T00:02:46.721Z,17.72
2023-09-17T00:03:46.880Z,17.72
2023-09-17T00:04:46.691Z,17.71
2023-09-17T00:05:46.786Z,17.70
2023-09-17T00:06:46.653Z,17.70
2023-09-17T00:07:46.722Z,17.70
2023-09-17T00:08:46.604Z,17.71
2023-09-17T00:09:46.645Z,17.72
2023-09-17T00:10:46.680Z,17.72
2023-09-17T00:11:46.639Z,17.71
2023-09-17T00:12:46.580Z,17.71
2023-09-17T00:13:46.593Z,17.66
2023-09-17T00:14:46.608Z,17.66
2023-09-17T00:15:46.567Z,17.66
2023-09-17T00:16:46.770Z,17.64
2023-09-17T00:17:46.561Z,17.64
2023-09-17T00:18:46.579Z,17.66
2023-09-17T00:19:46.620Z,17.68
2023-09-17T00:20:46.485Z,17.68
2023-09-17T00:21:46.476Z,17.70
2023-09-17T00:22:46.501Z,17.70
2023-09-17T00:23:46.506Z,17.72
2023-09-17T00:24:46.448Z,17.72
2023-09-17T00:25:46.458Z,17.71
2023-09-17T00:26:46.400Z,17.74
2023-09-17T00:27:46.412Z,17.77
2023-09-17T00:28:46.459Z,17.75
2023-09-17T00:29:46.384Z,17.77
2023-09-17T00:30:46.436Z,17.75
2023-09-17T00:31:46.442Z,17.75
2023-09-17T00:32:46.368Z,17.75
2023-09-17T00:33:46.342Z,17.77
2023-09-17T00:34:46.357Z,17.78
2023-09-17T00:35:46.357Z,17.75
2023-09-17T00:36:46.406Z,17.75
2023-09-17T00:37:46.385Z,17.75
2023-09-17T00:38:46.280Z,17.72
2023-09-17T00:39:46.284Z,17.72
2023-09-17T00:40:46.302Z,17.71
2023-09-17T00:41:46.341Z,17.68
2023-09-17T00:42:46.242Z,17.64
2023-09-17T00:43:46.338Z,17.62
2023-09-17T00:44:46.244Z,17.63
2023-09-17T00:45:46.239Z,17.63
2023-09-17T00:46:46.310Z,17.62
2023-09-17T00:47:46.318Z,17.62
2023-09-17T00:48:46.239Z,17.62
2023-09-17T00:49:46.253Z,17.62
2023-09-17T00:50:46.154Z,17.62
2023-09-17T00:51:46.153Z,17.64
2023-09-17T00:52:46.223Z,17.64
2023-09-17T00:53:46.202Z,17.63
2023-09-17T00:54:46.130Z,17.64
2023-09-17T00:55:46.161Z,17.64
2023-09-17T00:56:46.162Z,17.66
2023-09-17T00:57:46.099Z,17.63
2023-09-17T00:58:46.099Z,17.66
2023-09-17T00:59:46.108Z,17.66
2023-09-17T01:00:46.055Z,17.68
2023-09-17T01:01:46.149Z,17.70
2023-09-17T01:02:46.093Z,17.71
2023-09-17T01:03:46.133Z,17.71
2023-09-17T01:04:46.030Z,17.72
2023-09-17T01:05:46.051Z,17.71
2023-09-17T01:06:46.012Z,17.72
2023-09-17T01:07:46.070Z,17.72
2023-09-17T01:08:45.986Z,17.75
2023-09-17T01:09:46.013Z,17.75
2023-09-17T01:10:45.992Z,17.74
2023-09-17T01:11:45.929Z,17.72
2023-09-17T01:12:45.955Z,17.74
2023-09-17T01:13:45.948Z,17.72
2023-09-17T01:14:45.904Z,17.72
2023-09-17T01:15:46.002Z,17.72
2023-09-17T01:16:45.953Z,17.70
2023-09-17T01:17:45.900Z,17.70
2023-09-17T01:18:45.845Z,17.70
2023-09-17T01:19:45.907Z,17.71
2023-09-17T01:20:45.866Z,17.70
2023-09-17T01:21:45.844Z,17.71
2023-09-17T01:22:45.955Z,17.72
2023-09-17T01:23:45.815Z,17.72
2023-09-17T01:24:45.813Z,17.70
2023-09-17T01:25:45.837Z,17.71
2023-09-17T01:26:45.794Z,17.70
2023-09-17T01:27:45.784Z,17.68
2023-09-17T01:28:45.824Z,17.66
2023-09-17T01:29:45.755Z,17.66
2023-09-17T01:30:45.777Z,17.64
2023-09-17T01:31:45.757Z,17.64
2023-09-17T01:32:45.722Z,17.64
2023-09-17T01:33:45.804Z,17.66
2023-09-17T01:34:45.727Z,17.63
2023-09-17T01:35:45.708Z,17.64
2023-09-17T01:36:45.654Z,17.62
2023-09-17T01:37:45.711Z,17.62
2023-09-17T01:38:45.648Z,17.59
2023-09-17T01:39:45.637Z,17.58
2023-09-17T01:40:45.642Z,17.55
2023-09-17T01:41:45.634Z,17.55
2023-09-17T01:42:45.589Z,17.52
2023-09-17T01:43:45.898Z,17.51
2023-09-17T01:44:45.641Z,17.48
2023-09-17T01:45:45.581Z,17.49
2023-09-17T01:46:45.622Z,17.48
2023-09-17T01:47:45.600Z,17.46
2023-09-17T01:48:45.570Z,17.46
2023-09-17T01:49:45.639Z,17.46
2023-09-17T01:50:45.532Z,17.44
2023-09-17T01:51:45.562Z,17.44
2023-09-17T01:52:45.516Z,17.44
2023-09-17T01:53:45.500Z,17.46
2023-09-17T01:54:45.485Z,17.44
2023-09-17T01:55:45.534Z,17.43
2023-09-17T01:56:45.460Z,17.44
2023-09-17T01:57:45.452Z,17.43
2023-09-17T01:58:45.460Z,17.41
2023-09-17T01:59:45.413Z,17.41
2023-09-17T02:00:45.396Z,17.40
2023-09-17T02:01:45.485Z,17.40
2023-09-17T02:02:45.477Z,17.38
2023-09-17T02:03:45.500Z,17.38
2023-09-17T02:04:45.366Z,17.37
2023-09-17T02:05:45.372Z,17.37
2023-09-17T02:06:45.331Z,17.34
2023-09-17T02:07:45.511Z,17.36
2023-09-17T02:08:45.482Z,17.37
2023-09-17T02:09:45.327Z,17.34
2023-09-17T02:10:45.302Z,17.31
2023-09-17T02:11:45.285Z,17.30
2023-09-17T02:12:45.266Z,17.30
2023-09-17T02:13:45.299Z,17.28
2023-09-17T02:14:45.271Z,17.26
2023-09-17T02:15:45.281Z,17.25
2023-09-17T02:16:45.227Z,17.25
2023-09-17T02:17:45.272Z,17.22
2023-09-17T02:18:45.274Z,17.21
2023-09-17T02:19:45.603Z,17.21
2023-09-17T02:20:45.150Z,17.18
2023-09-17T02:21:45.209Z,17.18
2023-09-17T02:22:45.246Z,17.18
2023-09-17T02:23:45.173Z,17.16
2023-09-17T02:24:45.117Z,17.16
2023-09-17T02:25:45.207Z,17.16
2023-09-17T02:26:45.141Z,17.16
2023-09-17T02:27:45.092Z,17.15
2023-09-17T02:28:45.090Z,17.16
2023-09-17T02:29:45.104Z,17.16
2023-09-17T02:30:45.083Z,17.15
2023-09-17T02:31:45.112Z,17.15
2023-09-17T02:32:45.135Z,17.16
2023-09-17T02:33:45.025Z,17.15
2023-09-17T02:34:45.049Z,17.16
2023-09-17T02:35:45.005Z,17.14
2023-09-17T02:36:45.049Z,17.14
2023-09-17T02:37:45.073Z,17.15
2023-09-17T02:38:44.989Z,17.14
2023-09-17T02:39:45.047Z,17.12
2023-09-17T02:40:44.993Z,17.11
2023-09-17T02:41:44.989Z,17.11
2023-09-17T02:42:44.930Z,17.12
2023-09-17T02:43:44.973Z,17.11
2023-09-17T02:44:44.921Z,17.08
2023-09-17T02:45:44.898Z,17.11
2023-09-17T02:46:44.903Z,17.11
2023-09-17T02:47:44.933Z,17.11
2023-09-17T02:48:44.871Z,17.08
2023-09-17T02:49:44.901Z,17.07
2023-09-17T02:50:44.838Z,17.07
2023-09-17T02:51:44.838Z,17.07
2023-09-17T02:52:44.911Z,17.06
2023-09-17T02:53:44.816Z,17.08
2023-09-17T02:54:44.809Z,17.08
2023-09-17T02:55:44.891Z,17.07
2023-09-17T02:56:44.796Z,17.08
2023-09-17T02:57:44.785Z,17.07
2023-09-17T02:58:44.795Z,17.08
2023-09-17T02:59:44.754Z,17.07
2023-09-17T03:00:44.805Z,17.08
2023-09-17T03:01:44.767Z,17.08
2023-09-17T03:02:44.818Z,17.11
2023-09-17T03:03:44.697Z,17.08
2023-09-17T03:04:44.790Z,17.08
2023-09-17T03:05:44.689Z,17.08
2023-09-17T03:06:44.655Z,17.07
2023-09-17T03:07:44.711Z,17.08
2023-09-17T03:08:44.663Z,17.08
2023-09-17T03:09:44.655Z,17.08
2023-09-17T03:10:44.882Z,17.08
2023-09-17T03:11:44.632Z,17.08
2023-09-17T03:12:44.602Z,17.07
2023-09-17T03:13:44.656Z,17.07
2023-09-17T03:14:44.593Z,17.06
2023-09-17T03:15:44.614Z,17.04
2023-09-17T03:16:44.743Z,17.01
2023-09-17T03:17:44.619Z,16.97
2023-09-17T03:18:44.541Z,16.98
2023-09-17T03:19:44.586Z,16.97
2023-09-17T03:20:44.520Z,16.98
2023-09-17T03:21:44.522Z,16.97
2023-09-17T03:22:44.537Z,16.94
2023-09-17T03:23:44.538Z,16.94
2023-09-17T03:24:51.038Z,16.94
2023-09-17T03:25:45.506Z,16.94
2023-09-17T03:26:44.462Z,16.93
2023-09-17T03:27:44.527Z,16.93
2023-09-17T03:28:44.551Z,16.91
2023-09-17T03:29:44.423Z,16.91
2023-09-17T03:30:44.447Z,16.88
2023-09-17T03:31:44.469Z,16.89
2023-09-17T03:32:57.582Z,16.86
2023-09-17T03:33:45.508Z,16.85
2023-09-17T03:34:44.401Z,16.85
2023-09-17T03:35:44.383Z,16.82
2023-09-17T03:36:44.340Z,16.83
2023-09-17T03:37:44.392Z,16.83
2023-09-17T03:38:44.318Z,16.85
2023-09-17T03:39:44.311Z,16.85
2023-09-17T03:40:44.319Z,16.86
2023-09-17T03:41:44.318Z,16.83
2023-09-17T03:42:44.322Z,16.83
2023-09-17T03:43:44.362Z,16.83
2023-09-17T03:44:44.278Z,16.83
2023-09-17T03:45:44.252Z,16.82
2023-09-17T03:46:44.355Z,16.82
2023-09-17T03:47:44.273Z,16.82
2023-09-17T03:48:44.236Z,16.83
2023-09-17T03:49:44.274Z,16.82
2023-09-17T03:50:44.190Z,16.82
2023-09-17T03:51:44.184Z,16.81
2023-09-17T03:52:44.206Z,16.81
2023-09-17T03:53:44.144Z,16.78
2023-09-17T03:54:44.165Z,16.82
2023-09-17T03:55:44.179Z,16.82
2023-09-17T03:56:44.150Z,16.79
2023-09-17T03:57:44.149Z,16.79
2023-09-17T03:58:46.047Z,16.79
2023-09-17T03:59:44.091Z,16.82
2023-09-17T04:00:44.092Z,16.81
2023-09-17T04:01:44.121Z,16.85
2023-09-17T04:02:44.140Z,16.83
2023-09-17T04:03:44.098Z,16.83
2023-09-17T04:04:44.072Z,16.82
2023-09-17T04:05:44.031Z,16.82
2023-09-17T04:06:44.009Z,16.82
2023-09-17T04:07:44.120Z,16.81
2023-09-17T04:08:44.000Z,16.81
2023-09-17T04:09:43.982Z,16.79
2023-09-17T04:10:44.025Z,16.79
2023-09-17T04:11:43.961Z,16.79
2023-09-17T04:12:44.140Z,16.79
2023-09-17T04:13:44.061Z,16.79
2023-09-17T04:14:43.937Z,16.75
2023-09-17T04:15:43.894Z,16.76
2023-09-17T04:16:44.003Z,16.76
2023-09-17T04:17:43.927Z,16.76
2023-09-17T04:18:43.877Z,16.79
2023-09-17T04:19:43.903Z,16.79
2023-09-17T04:20:43.861Z,16.79
2023-09-17T04:21:43.839Z,16.78
2023-09-17T04:22:44.210Z,16.78
2023-09-17T04:23:43.791Z,16.78
2023-09-17T04:24:43.813Z,16.79
2023-09-17T04:25:43.869Z,16.79
2023-09-17T04:26:43.819Z,16.78
2023-09-17T04:27:43.784Z,16.76
2023-09-17T04:28:43.821Z,16.76
2023-09-17T04:29:43.798Z,16.78
2023-09-17T04:30:43.782Z,16.78
2023-09-17T04:31:43.799Z,16.78
2023-09-17T04:32:43.894Z,16.78
2023-09-17T04:33:43.752Z,16.78
2023-09-17T04:34:43.905Z,16.78
2023-09-17T04:35:43.697Z,16.76
2023-09-17T04:36:43.694Z,16.76
2023-09-17T04:37:43.706Z,16.78
2023-09-17T04:38:43.645Z,16.76
2023-09-17T04:39:43.673Z,16.75
2023-09-17T04:40:43.702Z,16.73
2023-09-17T04:41:43.632Z,16.73
2023-09-17T04:42:43.651Z,16.73
2023-09-17T04:43:43.697Z,16.71
2023-09-17T04:44:43.614Z,16.70
2023-09-17T04:45:43.597Z,16.68
2023-09-17T04:46:43.626Z,16.66
2023-09-17T04:47:43.576Z,16.66
2023-09-17T04:48:43.553Z,16.64
2023-09-17T04:49:43.564Z,16.63
2023-09-17T04:50:46.284Z,16.64
2023-09-17T04:51:43.504Z,16.66
2023-09-17T04:52:43.577Z,16.64
2023-09-17T04:53:43.522Z,16.63
2023-09-17T04:54:43.504Z,16.64
2023-09-17T04:55:43.576Z,16.64
2023-09-17T04:56:43.474Z,16.63
2023-09-17T04:57:43.459Z,16.63
2023-09-17T04:58:43.497Z,16.63
2023-09-17T04:59:43.443Z,16.63
2023-09-17T05:00:43.423Z,16.64
2023-09-17T05:01:43.447Z,16.66
2023-09-17T05:02:43.446Z,16.66
2023-09-17T05:03:43.506Z,16.66
2023-09-17T05:04:43.390Z,16.67
2023-09-17T05:05:43.371Z,16.68
2023-09-17T05:06:43.458Z,16.70
2023-09-17T05:07:43.384Z,16.70
2023-09-17T05:08:43.338Z,16.70
2023-09-17T05:09:43.333Z,16.71
2023-09-17T05:10:43.344Z,16.70
2023-09-17T05:11:43.289Z,16.70
2023-09-17T05:12:43.298Z,16.70
2023-09-17T05:13:43.291Z,16.70
2023-09-17T05:14:44.033Z,16.70
2023-09-17T05:15:43.279Z,16.71
2023-09-17T05:16:43.404Z,16.71
2023-09-17T05:17:43.257Z,16.68
2023-09-17T05:18:43.284Z,16.71
2023-09-17T05:19:43.209Z,16.70
2023-09-17T05:20:43.208Z,16.70
2023-09-17T05:21:43.174Z,16.70
2023-09-17T05:22:43.199Z,16.67
2023-09-17T05:23:43.183Z,16.68
2023-09-17T05:24:43.148Z,16.70
2023-09-17T05:25:43.182Z,16.71
2023-09-17T05:26:43.160Z,16.70
2023-09-17T05:27:43.079Z,16.70
2023-09-17T05:28:43.242Z,16.70
2023-09-17T05:29:43.115Z,16.71
2023-09-17T05:30:43.076Z,16.71
2023-09-17T05:31:43.168Z,16.70
2023-09-17T05:32:43.112Z,16.75
2023-09-17T05:33:43.053Z,16.75
2023-09-17T05:34:43.076Z,16.73
2023-09-17T05:35:43.038Z,16.76
2023-09-17T05:36:43.050Z,16.78
2023-09-17T05:37:43.036Z,16.78
2023-09-17T05:38:43.021Z,16.78
2023-09-17T05:39:51.749Z,16.78
2023-09-17T05:40:44.991Z,16.78
2023-09-17T05:41:42.934Z,16.79
2023-09-17T05:42:42.924Z,16.79
2023-09-17T05:43:42.950Z,16.79
2023-09-17T05:44:42.915Z,16.81
2023-09-17T05:45:42.975Z,16.81
2023-09-17T05:46:42.915Z,16.82
2023-09-17T05:47:42.901Z,16.85
2023-09-17T05:48:42.878Z,16.86
2023-09-17T05:49:42.888Z,16.88
2023-09-17T05:50:42.888Z,16.91
2023-09-17T05:51:42.826Z,16.96
2023-09-17T05:52:42.868Z,17.01
2023-09-17T05:53:42.809Z,17.03
2023-09-17T05:54:42.803Z,17.08
2023-09-17T05:55:42.814Z,17.14
2023-09-17T05:56:42.796Z,17.15
2023-09-17T05:57:42.756Z,17.18
2023-09-17T05:58:42.798Z,17.19
2023-09-17T05:59:42.745Z,17.23
2023-09-17T06:00:42.748Z,17.25
2023-09-17T06:01:42.827Z,17.25
2023-09-17T06:02:42.838Z,17.23
2023-09-17T06:03:42.750Z,17.28
2023-09-17T06:04:42.722Z,17.31
2023-09-17T06:05:42.668Z,17.31
2023-09-17T06:06:42.683Z,17.34
2023-09-17T06:07:42.729Z,17.37
2023-09-17T06:08:42.654Z,17.38
2023-09-17T06:09:42.651Z,17.43
2023-09-17T06:10:42.660Z,17.44
2023-09-17T06:11:42.619Z,17.48
2023-09-17T06:12:42.623Z,17.54
2023-09-17T06:13:42.616Z,17.56
2023-09-17T06:14:42.587Z,17.58
2023-09-17T06:15:42.643Z,17.63
2023-09-17T06:16:54.681Z,17.64
2023-09-17T06:17:43.557Z,17.68
2023-09-17T06:18:42.554Z,17.71
2023-09-17T06:19:42.559Z,17.72
2023-09-17T06:20:42.516Z,17.75
2023-09-17T06:21:42.512Z,17.75
2023-09-17T06:22:42.521Z,17.78
2023-09-17T06:23:42.487Z,17.81
2023-09-17T06:24:42.484Z,17.84
2023-09-17T06:25:42.450Z,17.86
2023-09-17T06:26:42.445Z,17.86
2023-09-17T06:27:42.447Z,17.89
2023-09-17T06:28:42.469Z,17.87
2023-09-17T06:29:42.396Z,17.90
2023-09-17T06:30:42.416Z,17.90
2023-09-17T06:31:42.402Z,17.95
2023-09-17T06:32:42.412Z,17.97
2023-09-17T06:33:42.361Z,17.96
2023-09-17T06:34:42.372Z,17.99
2023-09-17T06:35:42.360Z,17.99
2023-09-17T06:36:42.332Z,18.00
2023-09-17T06:37:42.356Z,18.02
2023-09-17T06:38:42.318Z,18.03
2023-09-17T06:39:42.293Z,18.07
2023-09-17T06:40:42.332Z,18.07
2023-09-17T06:41:43.429Z,18.08
2023-09-17T06:42:42.260Z,18.11
2023-09-17T06:43:42.292Z,18.12
2023-09-17T06:44:42.253Z,18.17
2023-09-17T06:45:42.224Z,18.20
2023-09-17T06:46:42.453Z,18.21
2023-09-17T06:47:42.378Z,18.26
2023-09-17T06:48:43.192Z,18.30
2023-09-17T06:49:42.198Z,18.32
2023-09-17T06:50:42.181Z,18.30
2023-09-17T06:51:42.168Z,18.27
2023-09-17T06:52:42.191Z,18.27
2023-09-17T06:53:42.163Z,18.25
2023-09-17T06:54:42.147Z,18.21
2023-09-17T06:55:42.160Z,18.17
2023-09-17T06:56:42.128Z,18.14
2023-09-17T06:57:42.093Z,18.10
2023-09-17T06:58:42.112Z,18.05
2023-09-17T06:59:42.097Z,18.05
2023-09-17T07:00:42.095Z,18.05
2023-09-17T07:01:42.076Z,18.05
2023-09-17T07:02:42.140Z,18.07
2023-09-17T07:03:42.023Z,18.10
2023-09-17T07:04:42.069Z,18.11
2023-09-17T07:05:42.012Z,18.15
2023-09-17T07:06:42.026Z,18.18
2023-09-17T07:07:42.009Z,18.21
2023-09-17T07:08:41.984Z,18.21
2023-09-17T07:09:41.954Z,18.25
2023-09-17T07:10:41.977Z,18.26
2023-09-17T07:11:41.952Z,18.30
2023-09-17T07:12:41.942Z,18.32
2023-09-17T07:13:41.932Z,18.37
2023-09-17T07:14:41.929Z,18.41
2023-09-17T07:15:41.894Z,18.45
2023-09-17T07:16:41.947Z,18.52
2023-09-17T07:17:41.999Z,18.58
2023-09-17T07:18:41.950Z,18.62
2023-09-17T07:19:41.901Z,18.65
2023-09-17T07:20:41.854Z,18.67
2023-09-17T07:21:41.824Z,18.70
2023-09-17T07:22:41.852Z,18.73
2023-09-17T07:23:41.814Z,18.75
2023-09-17T07:24:41.812Z,18.78
2023-09-17T07:25:41.821Z,18.78
2023-09-17T07:26:41.767Z,18.81
2023-09-17T07:27:41.776Z,18.84
2023-09-17T07:28:41.766Z,18.81
2023-09-17T07:29:41.754Z,18.84
2023-09-17T07:30:41.781Z,18.85
2023-09-17T07:31:41.745Z,18.90
2023-09-17T07:32:41.748Z,18.94
2023-09-17T07:33:41.702Z,18.98
2023-09-17T07:34:41.734Z,19.02
2023-09-17T07:35:41.675Z,19.04
2023-09-17T07:36:41.686Z,19.06
2023-09-17T07:37:50.615Z,19.10
2023-09-17T07:38:42.659Z,19.11
2023-09-17T07:39:41.622Z,19.14
2023-09-17T07:40:41.649Z,19.16
2023-09-17T07:41:41.619Z,19.18
2023-09-17T07:42:41.613Z,19.22
2023-09-17T07:43:41.657Z,19.23
2023-09-17T07:44:41.563Z,19.28
2023-09-17T07:45:41.595Z,19.32
2023-09-17T07:46:42.651Z,19.33
2023-09-17T07:47:41.615Z,19.40
2023-09-17T07:48:41.551Z,19.44
2023-09-17T07:49:41.633Z,19.50
2023-09-17T07:50:41.537Z,19.59
2023-09-17T07:51:41.508Z,19.62
2023-09-17T07:52:41.547Z,19.68
2023-09-17T07:53:41.480Z,19.73
2023-09-17T07:54:41.469Z,19.77
2023-09-17T07:55:41.498Z,19.86
2023-09-17T07:56:41.461Z,19.91
2023-09-17T07:57:41.458Z,19.96
2023-09-17T07:58:41.516Z,20.02
2023-09-17T07:59:41.432Z,20.08
2023-09-17T08:00:41.414Z,20.11
2023-09-17T08:01:41.513Z,20.16
2023-09-17T08:02:41.816Z,20.20
2023-09-17T08:03:41.456Z,20.24
2023-09-17T08:04:41.424Z,20.28
2023-09-17T08:05:41.373Z,20.32
2023-09-17T08:06:41.336Z,20.36
2023-09-17T08:07:41.457Z,20.39
2023-09-17T08:08:41.331Z,20.50
2023-09-17T08:09:41.302Z,20.52
2023-09-17T08:10:41.374Z,20.57
2023-09-17T08:11:41.305Z,20.58
2023-09-17T08:12:41.284Z,20.59
2023-09-17T08:13:41.370Z,20.66
2023-09-17T08:14:41.234Z,20.69
2023-09-17T08:15:41.258Z,20.73
2023-09-17T08:16:41.371Z,20.73
2023-09-17T08:17:41.275Z,20.74
2023-09-17T08:18:41.231Z,20.74
2023-09-17T08:19:41.238Z,20.77
2023-09-17T08:20:41.231Z,20.76
2023-09-17T08:21:41.185Z,20.80
2023-09-17T08:22:41.235Z,20.84
2023-09-17T08:23:41.184Z,20.82
2023-09-17T08:24:41.153Z,20.80
2023-09-17T08:25:41.162Z,20.80
2023-09-17T08:26:41.142Z,20.80
2023-09-17T08:27:41.132Z,20.79
2023-09-17T08:28:41.109Z,20.77
2023-09-17T08:29:41.101Z,20.74
2023-09-17T08:30:41.095Z,20.69
2023-09-17T08:31:41.094Z,20.66
2023-09-17T08:32:41.193Z,20.62
2023-09-17T08:33:41.042Z,20.59
2023-09-17T08:34:41.120Z,20.58
2023-09-17T08:35:41.141Z,20.57
2023-09-17T08:36:41.010Z,20.51
2023-09-17T08:37:41.021Z,20.48
2023-09-17T08:38:41.026Z,20.47
2023-09-17T08:39:40.997Z,20.47
2023-09-17T08:40:41.026Z,20.42
2023-09-17T08:41:40.954Z,20.38
2023-09-17T08:42:40.959Z,20.31
2023-09-17T08:43:40.987Z,20.23
2023-09-17T08:44:40.920Z,20.17
2023-09-17T08:45:40.914Z,20.16
2023-09-17T08:46:41.038Z,20.14
2023-09-17T08:47:40.900Z,20.06
2023-09-17T08:48:40.904Z,20.02
2023-09-17T08:49:40.939Z,19.98
2023-09-17T08:50:40.869Z,19.96
2023-09-17T08:51:40.912Z,19.96
2023-09-17T08:52:40.906Z,19.95
2023-09-17T08:53:40.843Z,19.94
2023-09-17T08:54:40.844Z,19.87
2023-09-17T08:55:40.888Z,19.87
2023-09-17T08:56:40.787Z,19.86
2023-09-17T08:57:40.792Z,19.87
2023-09-17T08:58:40.829Z,19.86
2023-09-17T08:59:40.779Z,19.84
2023-09-17T09:00:40.787Z,19.87
2023-09-17T09:01:40.820Z,19.88
2023-09-17T09:02:40.880Z,19.94
2023-09-17T09:03:40.775Z,19.95
2023-09-17T09:04:40.734Z,19.96
2023-09-17T09:05:40.704Z,20.01
2023-09-17T09:06:40.690Z,20.02
2023-09-17T09:07:40.692Z,20.05
2023-09-17T09:08:40.668Z,20.08
2023-09-17T09:09:40.662Z,20.16
2023-09-17T09:10:40.666Z,20.21
2023-09-17T09:11:40.638Z,20.29
2023-09-17T09:12:40.620Z,20.35
2023-09-17T09:13:40.688Z,20.43
2023-09-17T09:14:40.612Z,20.55
2023-09-17T09:15:40.597Z,20.62
2023-09-17T09:16:40.643Z,20.69
2023-09-17T09:17:40.677Z,20.76
2023-09-17T09:18:40.553Z,20.82
2023-09-17T09:19:40.607Z,20.89
2023-09-17T09:20:40.520Z,20.94
2023-09-17T09:21:40.536Z,20.98
2023-09-17T09:22:40.656Z,21.01
2023-09-17T09:23:40.551Z,21.06
2023-09-17T09:24:40.503Z,21.06
2023-09-17T09:25:40.568Z,21.06
2023-09-17T09:26:40.460Z,21.09
2023-09-17T09:27:40.468Z,21.10
2023-09-17T09:28:40.443Z,21.09
2023-09-17T09:29:40.454Z,21.17
2023-09-17T09:30:40.412Z,21.27
2023-09-17T09:31:40.412Z,21.34
2023-09-17T09:32:40.585Z,21.37
2023-09-17T09:33:40.419Z,21.35
2023-09-17T09:34:40.414Z,21.42
2023-09-17T09:35:40.400Z,21.46
2023-09-17T09:36:40.408Z,21.53
2023-09-17T09:37:40.377Z,21.61
2023-09-17T09:38:40.323Z,21.69
2023-09-17T09:39:40.354Z,21.77
2023-09-17T09:40:40.337Z,21.86
2023-09-17T09:41:40.371Z,22.02
2023-09-17T09:42:40.340Z,22.18
2023-09-17T09:43:40.321Z,22.30
2023-09-17T09:44:40.262Z,22.45
2023-09-17T09:45:40.268Z,22.58
2023-09-17T09:46:40.273Z,22.64
2023-09-17T09:47:40.269Z,22.70
2023-09-17T09:48:40.205Z,22.79
2023-09-17T09:49:40.259Z,22.90
2023-09-17T09:50:40.223Z,22.97
2023-09-17T09:51:40.205Z,23.02
2023-09-17T09:52:40.214Z,23.09
2023-09-17T09:53:40.194Z,23.13
2023-09-17T09:54:40.161Z,23.20
2023-09-17T09:55:40.155Z,23.39
2023-09-17T09:56:40.157Z,23.55
2023-09-17T09:57:41.227Z,23.66
2023-09-17T09:58:40.126Z,23.95
2023-09-17T09:59:40.101Z,24.25
2023-09-17T10:00:40.068Z,24.46
2023-09-17T10:01:40.209Z,24.81
2023-09-17T10:02:40.114Z,25.08
2023-09-17T10:03:40.086Z,25.30
2023-09-17T10:04:40.185Z,25.30
2023-09-17T10:05:40.076Z,25.18
2023-09-17T10:06:40.026Z,25.17
2023-09-17T10:07:40.080Z,25.14
2023-09-17T10:08:40.008Z,25.05
2023-09-17T10:09:40.014Z,25.32
2023-09-17T10:10:39.999Z,25.67
2023-09-17T10:11:39.991Z,25.95
2023-09-17T10:12:39.962Z,25.99
2023-09-17T10:13:40.075Z,26.06
2023-09-17T10:14:39.947Z,26.10
2023-09-17T10:15:40.018Z,26.21
2023-09-17T10:16:39.976Z,26.17
2023-09-17T10:17:39.955Z,26.02
2023-09-17T10:18:39.946Z,25.94
2023-09-17T10:19:39.915Z,25.90
2023-09-17T10:20:39.865Z,25.87
2023-09-17T10:21:39.890Z,25.72
2023-09-17T10:22:39.856Z,25.64
2023-09-17T10:23:39.859Z,25.51
2023-09-17T10:24:40.055Z,25.43
2023-09-17T10:25:39.903Z,25.43
2023-09-17T10:26:39.839Z,25.45
2023-09-17T10:27:39.829Z,25.45
2023-09-17T10:28:39.815Z,25.46
2023-09-17T10:29:39.996Z,25.50
2023-09-17T10:30:39.791Z,25.54
2023-09-17T10:31:39.881Z,25.62
2023-09-17T10:32:39.844Z,25.73
2023-09-17T10:33:39.771Z,25.85
2023-09-17T10:34:39.742Z,25.88
2023-09-17T10:35:39.756Z,25.98
2023-09-17T10:36:39.701Z,26.02
2023-09-17T10:37:39.710Z,26.01
2023-09-17T10:38:39.757Z,25.99
2023-09-17T10:39:39.701Z,25.99
2023-09-17T10:40:39.761Z,26.09
2023-09-17T10:41:39.654Z,26.15
2023-09-17T10:42:39.665Z,26.18
2023-09-17T10:43:39.662Z,26.26
2023-09-17T10:44:39.628Z,26.33
2023-09-17T10:45:39.612Z,26.43
2023-09-17T10:46:39.868Z,26.44
2023-09-17T10:47:39.647Z,26.50
2023-09-17T10:48:39.570Z,26.58
2023-09-17T10:49:39.590Z,26.67
2023-09-17T10:50:39.545Z,26.67
2023-09-17T10:51:39.562Z,26.66
2023-09-17T10:52:39.559Z,26.66
2023-09-17T10:53:39.519Z,26.70
2023-09-17T10:54:39.510Z,26.70
2023-09-17T10:55:39.552Z,26.77
2023-09-17T10:56:39.484Z,26.77
2023-09-17T10:57:39.464Z,26.77
2023-09-17T10:58:39.494Z,26.69
2023-09-17T10:59:39.749Z,26.55
2023-09-17T11:00:39.512Z,26.48
2023-09-17T11:01:39.449Z,26.45
2023-09-17T11:02:39.515Z,26.44
2023-09-17T11:03:39.582Z,26.40
2023-09-17T11:04:39.410Z,26.45
2023-09-17T11:05:39.402Z,26.45
2023-09-17T11:06:39.370Z,26.45
2023-09-17T11:07:39.402Z,26.52
2023-09-17T11:08:39.346Z,26.58
2023-09-17T11:09:39.349Z,26.65
2023-09-17T11:10:39.360Z,26.76
2023-09-17T11:11:39.331Z,26.88
2023-09-17T11:12:39.310Z,26.91
2023-09-17T11:13:39.349Z,26.95
2023-09-17T11:14:39.294Z,26.97
2023-09-17T11:15:39.286Z,27.07
2023-09-17T11:16:39.337Z,27.12
2023-09-17T11:17:39.336Z,27.21
2023-09-17T11:18:39.245Z,27.31
2023-09-17T11:19:39.293Z,27.41
2023-09-17T11:20:39.216Z,27.57
2023-09-17T11:21:39.235Z,27.70
2023-09-17T11:22:39.236Z,27.82
2023-09-17T11:23:39.199Z,27.94
2023-09-17T11:24:39.218Z,28.04
2023-09-17T11:25:39.252Z,28.21
2023-09-17T11:26:40.318Z,28.36
2023-09-17T11:27:39.169Z,28.43
2023-09-17T11:28:39.178Z,28.51
2023-09-17T11:29:39.156Z,28.55
2023-09-17T11:30:40.152Z,28.59
2023-09-17T11:31:39.159Z,28.58
2023-09-17T11:32:39.114Z,28.58
2023-09-17T11:33:39.115Z,28.61
2023-09-17T11:34:39.123Z,28.54
2023-09-17T11:35:39.114Z,28.55
2023-09-17T11:36:39.060Z,28.64
2023-09-17T11:37:39.081Z,28.77
2023-09-17T11:38:39.056Z,28.83
2023-09-17T11:39:39.047Z,28.86
2023-09-17T11:40:39.091Z,28.88
2023-09-17T11:41:39.032Z,29.00
2023-09-17T11:42:39.002Z,29.12
2023-09-17T11:43:39.071Z,29.15
2023-09-17T11:44:39.000Z,28.96
2023-09-17T11:45:39.007Z,28.77
2023-09-17T11:46:39.040Z,28.64
2023-09-17T11:47:38.967Z,28.61
2023-09-17T11:48:39.019Z,28.52
2023-09-17T11:49:39.024Z,28.40
2023-09-17T11:50:38.940Z,28.18
2023-09-17T11:51:38.910Z,28.03
2023-09-17T11:52:38.974Z,27.99
2023-09-17T11:53:40.996Z,27.99
2023-09-17T11:54:38.897Z,28.07
2023-09-17T11:55:38.899Z,28.29
2023-09-17T11:56:38.874Z,28.46
2023-09-17T11:57:38.946Z,28.62
2023-09-17T11:58:38.881Z,28.78
2023-09-17T11:59:38.887Z,28.98
2023-09-17T12:00:38.849Z,29.14
2023-09-17T12:01:38.938Z,29.24
2023-09-17T12:02:38.916Z,29.37
2023-09-17T12:03:38.868Z,29.53
2023-09-17T12:04:39.250Z,29.67
2023-09-17T12:05:38.802Z,29.73
2023-09-17T12:06:38.786Z,29.92
2023-09-17T12:07:53.146Z,30.01
2023-09-17T12:08:39.763Z,30.10
2023-09-17T12:09:38.716Z,30.17
2023-09-17T12:10:38.786Z,30.32
2023-09-17T12:11:38.718Z,30.45
2023-09-17T12:12:38.743Z,30.55
2023-09-17T12:13:38.722Z,30.67
2023-09-17T12:14:38.705Z,30.79
2023-09-17T12:15:38.664Z,30.95
2023-09-17T12:16:38.748Z,30.97
2023-09-17T12:17:44.314Z,30.92
2023-09-17T12:18:39.681Z,30.94
2023-09-17T12:19:38.673Z,30.92
2023-09-17T12:20:38.695Z,30.95
2023-09-17T12:21:39.581Z,30.99
2023-09-17T12:22:38.690Z,30.98
2023-09-17T12:23:38.585Z,30.92
2023-09-17T12:24:38.592Z,30.95
2023-09-17T12:25:38.606Z,31.01
2023-09-17T12:26:38.582Z,31.16
2023-09-17T12:27:38.552Z,31.31
2023-09-17T12:28:38.684Z,31.36
2023-09-17T12:29:38.546Z,31.14
2023-09-17T12:30:38.561Z,30.95
2023-09-17T12:31:38.563Z,30.65
2023-09-17T12:32:38.549Z,30.38
2023-09-17T12:33:38.498Z,30.19
2023-09-17T12:34:38.532Z,30.00
2023-09-17T12:35:38.470Z,29.86
2023-09-17T12:36:38.477Z,29.82
2023-09-17T12:37:38.516Z,29.85
2023-09-17T12:38:38.459Z,29.80
2023-09-17T12:39:38.431Z,29.71
2023-09-17T12:40:38.487Z,29.63
2023-09-17T12:41:41.042Z,29.55
2023-09-17T12:42:38.420Z,29.41
2023-09-17T12:43:38.454Z,29.24
2023-09-17T12:44:38.411Z,29.19
2023-09-17T12:45:38.380Z,29.19
2023-09-17T12:46:38.430Z,29.46
2023-09-17T12:47:38.382Z,29.52
2023-09-17T12:48:38.359Z,29.46
2023-09-17T12:49:38.365Z,29.43
2023-09-17T12:50:38.347Z,29.46
2023-09-17T12:51:38.306Z,29.24
2023-09-17T12:52:38.360Z,29.21